createdAt,value
2016-01-30T00:00:25.076Z,5.29
2016-01-30T00:01:24.968Z,5.29
2016-01-30T00:02:24.988Z,5.28
2016-01-30T00:03:28.006Z,5.3
2016-01-30T00:04:28.040Z,5.33
2016-01-30T00:05:24.979Z,5.35
2016-01-30T00:06:24.966Z,5.25
2016-01-30T00:07:24.794Z,5.26
2016-01-30T00:08:24.781Z,5.26
2016-01-30T00:09:24.802Z,5.33
2016-01-30T00:10:24.820Z,5.47
2016-01-30T00:11:24.776Z,5.41
2016-01-30T00:12:24.841Z,5.38
2016-01-30T00:13:24.771Z,5.33
2016-01-30T00:14:24.790Z,5.36
2016-01-30T00:15:24.838Z,5.36
2016-01-30T00:16:24.781Z,5.3
2016-01-30T00:17:24.783Z,5.3
2016-01-30T00:18:24.770Z,5.2
2016-01-30T00:19:24.913Z,5.12
2016-01-30T00:20:24.979Z,5.12
2016-01-30T00:21:24.779Z,5.07
2016-01-30T00:22:24.766Z,5.05
2016-01-30T00:23:24.753Z,5.1
2016-01-30T00:24:24.759Z,5.1
2016-01-30T00:25:24.793Z,5.1
2016-01-30T00:26:24.734Z,5.04
2016-01-30T00:27:24.846Z,5.05
2016-01-30T00:28:24.756Z,5.04
2016-01-30T00:29:24.760Z,4.99
2016-01-30T00:30:24.840Z,4.9
2016-01-30T00:31:24.750Z,4.84
2016-01-30T00:32:24.725Z,4.9
2016-01-30T00:33:24.744Z,4.82
2016-01-30T00:34:24.762Z,4.87
2016-01-30T00:35:24.765Z,4.75
2016-01-30T00:36:24.744Z,4.71
2016-01-30T00:37:24.716Z,4.73
2016-01-30T00:38:24.749Z,4.71
2016-01-30T00:39:24.768Z,4.63
2016-01-30T00:40:24.771Z,4.67
2016-01-30T00:41:24.710Z,4.62
2016-01-30T00:42:24.729Z,4.62
2016-01-30T00:43:24.734Z,4.7
2016-01-30T00:44:24.720Z,4.5
2016-01-30T00:45:24.786Z,4.55
2016-01-30T00:46:24.732Z,4.52
2016-01-30T00:47:24.703Z,4.55
2016-01-30T00:48:25.300Z,4.48
2016-01-30T00:49:28.099Z,4.3
2016-01-30T00:50:24.945Z,4.34
2016-01-30T00:51:28.294Z,4.26
2016-01-30T00:52:24.859Z,4.23
2016-01-30T00:53:24.908Z,4.19
2016-01-30T00:54:25.005Z,4.05
2016-01-30T00:55:24.977Z,4.06
2016-01-30T00:56:24.916Z,4.04
2016-01-30T00:57:24.997Z,4.02
2016-01-30T00:58:24.999Z,3.99
2016-01-30T00:59:25.018Z,3.8
2016-01-30T01:00:24.912Z,3.94
2016-01-30T01:01:24.883Z,3.86
2016-01-30T01:02:24.810Z,3.84
2016-01-30T01:03:24.912Z,3.88
2016-01-30T01:04:24.702Z,3.87
2016-01-30T01:05:24.705Z,3.8
2016-01-30T01:06:24.648Z,3.81
2016-01-30T01:07:24.651Z,3.87
2016-01-30T01:08:24.654Z,3.81
2016-01-30T01:09:24.691Z,3.95
2016-01-30T01:10:24.665Z,3.95
2016-01-30T01:11:24.653Z,3.98
2016-01-30T01:12:24.639Z,3.94
2016-01-30T01:13:24.642Z,3.91
2016-01-30T01:14:24.630Z,4.01
2016-01-30T01:15:24.617Z,4.01
2016-01-30T01:16:24.624Z,4.02
2016-01-30T01:17:24.627Z,4.08
2016-01-30T01:18:24.630Z,4.16
2016-01-30T01:19:24.616Z,4.24
2016-01-30T01:20:24.620Z,4.31
2016-01-30T01:21:24.903Z,4.4
2016-01-30T01:22:24.606Z,4.48
2016-01-30T01:23:24.594Z,4.58
2016-01-30T01:24:24.597Z,4.5
2016-01-30T01:25:24.679Z,4.58
2016-01-30T01:26:24.587Z,4.77
2016-01-30T01:27:24.590Z,4.9
2016-01-30T01:28:24.577Z,4.9
2016-01-30T01:29:24.565Z,5.1
2016-01-30T01:30:24.599Z,5.12
2016-01-30T01:31:24.571Z,5.14
2016-01-30T01:32:24.589Z,5.18
2016-01-30T01:33:24.577Z,5.32
2016-01-30T01:34:24.564Z,5.3
2016-01-30T01:35:24.630Z,5.3
2016-01-30T01:36:24.575Z,5.26
2016-01-30T01:37:24.563Z,5.26
2016-01-30T01:38:24.597Z,5.29
2016-01-30T01:39:24.569Z,5.29
2016-01-30T01:40:24.557Z,5.28
2016-01-30T01:41:24.559Z,5.26
2016-01-30T01:42:24.530Z,5.3
2016-01-30T01:43:24.387Z,5.28
2016-01-30T01:44:24.546Z,5.26
2016-01-30T01:45:24.643Z,5.28
2016-01-30T01:46:24.521Z,5.21
2016-01-30T01:47:24.524Z,5.18
2016-01-30T01:48:24.527Z,5.28
2016-01-30T01:49:24.530Z,5.29
2016-01-30T01:50:24.548Z,5.26
2016-01-30T01:51:24.520Z,5.25
2016-01-30T01:52:24.539Z,5.29
2016-01-30T01:53:24.542Z,5.15
2016-01-30T01:54:24.560Z,5.23
2016-01-30T01:55:24.595Z,5.17
2016-01-30T01:56:24.551Z,5.18
2016-01-30T01:57:24.507Z,5.14
2016-01-30T01:58:24.495Z,5.14
2016-01-30T01:59:24.701Z,5.17
2016-01-30T02:00:24.611Z,5.29
2016-01-30T02:01:24.519Z,5.2
2016-01-30T02:02:24.506Z,5.17
2016-01-30T02:03:24.494Z,5.23
2016-01-30T02:04:24.497Z,5.17
2016-01-30T02:05:24.483Z,5.23
2016-01-30T02:06:24.501Z,5.3
2016-01-30T02:07:24.507Z,5.29
2016-01-30T02:08:24.510Z,5.2
2016-01-30T02:09:24.480Z,5.21
2016-01-30T02:10:24.562Z,5.11
2016-01-30T02:11:24.642Z,5.14
2016-01-30T02:12:24.693Z,5.08
2016-01-30T02:13:24.882Z,5
2016-01-30T02:14:24.807Z,4.87
2016-01-30T02:15:25.045Z,4.86
2016-01-30T02:16:24.892Z,4.82
2016-01-30T02:17:25.004Z,4.86
2016-01-30T02:18:25.179Z,4.8
2016-01-30T02:19:25.088Z,4.74
2016-01-30T02:20:24.809Z,4.62
2016-01-30T02:21:24.968Z,4.63
2016-01-30T02:22:24.440Z,4.58
2016-01-30T02:23:24.442Z,4.62
2016-01-30T02:24:24.601Z,4.48
2016-01-30T02:25:24.574Z,4.5
2016-01-30T02:26:24.607Z,4.45
2016-01-30T02:27:24.595Z,4.32
2016-01-30T02:28:24.629Z,4.38
2016-01-30T02:29:24.615Z,4.34
2016-01-30T02:30:24.699Z,4.32
2016-01-30T02:31:24.734Z,4.28
2016-01-30T02:32:24.548Z,4.22
2016-01-30T02:33:28.004Z,4.26
2016-01-30T02:34:24.432Z,4.22
2016-01-30T02:35:24.465Z,4.3
2016-01-30T02:36:24.422Z,4.28
2016-01-30T02:37:24.425Z,4.26
2016-01-30T02:38:24.397Z,4.16
2016-01-30T02:39:24.400Z,4.17
2016-01-30T02:40:24.433Z,4.19
2016-01-30T02:41:24.390Z,4.23
2016-01-30T02:42:24.425Z,4.04
2016-01-30T02:43:24.396Z,4.1
2016-01-30T02:44:24.384Z,4.06
2016-01-30T02:45:24.449Z,4.12
2016-01-30T02:46:24.373Z,4.05
2016-01-30T02:47:24.392Z,4.05
2016-01-30T02:48:24.383Z,4.02
2016-01-30T02:49:24.370Z,4.06
2016-01-30T02:50:24.404Z,4.05
2016-01-30T02:51:24.360Z,3.98
2016-01-30T02:52:24.362Z,4.01
2016-01-30T02:53:24.381Z,3.98
2016-01-30T02:54:24.342Z,3.96
2016-01-30T02:55:24.351Z,3.98
2016-01-30T02:56:24.327Z,3.96
2016-01-30T02:57:24.335Z,3.98
2016-01-30T02:58:24.296Z,3.98
2016-01-30T02:59:24.312Z,3.92
2016-01-30T03:00:24.406Z,3.8
2016-01-30T03:01:24.281Z,3.94
2016-01-30T03:02:24.263Z,3.95
2016-01-30T03:03:24.265Z,3.96
2016-01-30T03:04:24.280Z,3.98
2016-01-30T03:05:24.328Z,4.04
2016-01-30T03:06:24.251Z,4.1
2016-01-30T03:07:24.240Z,4.01
2016-01-30T03:08:24.257Z,4.02
2016-01-30T03:09:24.274Z,4.05
2016-01-30T03:10:24.245Z,3.99
2016-01-30T03:11:24.247Z,4.04
2016-01-30T03:12:24.221Z,4.04
2016-01-30T03:13:24.270Z,3.99
2016-01-30T03:14:24.229Z,4.02
2016-01-30T03:15:24.232Z,3.99
2016-01-30T03:16:24.235Z,3.91
2016-01-30T03:17:24.205Z,3.87
2016-01-30T03:18:24.255Z,3.86
2016-01-30T03:19:24.211Z,3.88
2016-01-30T03:20:24.261Z,3.86
2016-01-30T03:21:24.186Z,3.77
2016-01-30T03:22:24.036Z,3.84
2016-01-30T03:23:24.210Z,3.8
2016-01-30T03:24:24.181Z,3.84
2016-01-30T03:25:24.247Z,3.76
2016-01-30T03:26:24.188Z,3.74
2016-01-30T03:27:24.222Z,3.7
2016-01-30T03:28:24.208Z,3.76
2016-01-30T03:29:24.165Z,3.68
2016-01-30T03:30:24.261Z,3.68
2016-01-30T03:31:24.158Z,3.68
2016-01-30T03:32:24.161Z,3.63
2016-01-30T03:33:24.195Z,3.63
2016-01-30T03:34:24.166Z,3.66
2016-01-30T03:35:24.171Z,3.62
2016-01-30T03:36:24.127Z,3.62
2016-01-30T03:37:24.132Z,3.58
2016-01-30T03:38:24.166Z,3.53
2016-01-30T03:39:24.143Z,3.55
2016-01-30T03:40:24.131Z,3.58
2016-01-30T03:41:24.118Z,3.5
2016-01-30T03:42:24.137Z,3.48
2016-01-30T03:43:24.108Z,3.42
2016-01-30T03:44:24.096Z,3.48
2016-01-30T03:45:24.130Z,3.42
2016-01-30T03:46:24.133Z,3.45
2016-01-30T03:47:24.105Z,3.4
2016-01-30T03:48:24.108Z,3.4
2016-01-30T03:49:23.955Z,3.37
2016-01-30T03:50:24.129Z,3.44
2016-01-30T03:51:24.100Z,3.42
2016-01-30T03:52:24.088Z,3.42
2016-01-30T03:53:24.091Z,3.36
2016-01-30T03:54:24.094Z,3.37
2016-01-30T03:55:24.096Z,3.32
2016-01-30T03:56:24.067Z,3.28
2016-01-30T03:57:24.070Z,3.19
2016-01-30T03:58:24.058Z,3.26
2016-01-30T03:59:24.075Z,3.19
2016-01-30T04:00:24.127Z,3.23
2016-01-30T04:01:24.068Z,3.29
2016-01-30T04:02:24.054Z,3.22
2016-01-30T04:03:24.057Z,3.19
2016-01-30T04:04:24.061Z,3.23
2016-01-30T04:05:24.064Z,3.31
2016-01-30T04:06:24.083Z,3.23
2016-01-30T04:07:24.022Z,3.21
2016-01-30T04:08:24.059Z,3.23
2016-01-30T04:09:24.047Z,3.19
2016-01-30T04:10:24.064Z,3.11
2016-01-30T04:11:24.022Z,3.13
2016-01-30T04:12:24.010Z,3.1
2016-01-30T04:13:24.012Z,3.21
2016-01-30T04:14:23.999Z,3.13
2016-01-30T04:15:24.049Z,3.26
2016-01-30T04:16:24.020Z,3.1
2016-01-30T04:17:23.991Z,3.08
2016-01-30T04:18:23.994Z,3.14
2016-01-30T04:19:23.982Z,3.25
2016-01-30T04:20:24.015Z,3.19
2016-01-30T04:21:23.971Z,3.13
2016-01-30T04:22:23.973Z,3.13
2016-01-30T04:23:24.011Z,3.13
2016-01-30T04:24:24.030Z,3.1
2016-01-30T04:25:24.080Z,3.14
2016-01-30T04:26:23.973Z,3.1
2016-01-30T04:27:23.980Z,3.07
2016-01-30T04:28:23.937Z,3.18
2016-01-30T04:29:23.923Z,3.13
2016-01-30T04:30:23.988Z,3.13
2016-01-30T04:31:23.960Z,3.18
2016-01-30T04:32:23.922Z,3.14
2016-01-30T04:33:23.925Z,3.21
2016-01-30T04:34:23.947Z,3.13
2016-01-30T04:35:23.980Z,3.13
2016-01-30T04:36:23.920Z,3.11
2016-01-30T04:37:23.907Z,3.11
2016-01-30T04:38:23.925Z,3.23
2016-01-30T04:39:23.897Z,3.16
2016-01-30T04:40:23.916Z,3.07
2016-01-30T04:41:23.872Z,3.11
2016-01-30T04:42:23.738Z,3.13
2016-01-30T04:43:23.882Z,3.14
2016-01-30T04:44:23.869Z,3.08
2016-01-30T04:45:23.888Z,3.11
2016-01-30T04:46:23.875Z,3.11
2016-01-30T04:47:23.860Z,3.14
2016-01-30T04:48:23.847Z,3.14
2016-01-30T04:49:23.849Z,3.08
2016-01-30T04:50:23.884Z,3.13
2016-01-30T04:51:23.824Z,3.14
2016-01-30T04:52:23.827Z,3.07
2016-01-30T04:53:23.830Z,3.19
2016-01-30T04:54:23.832Z,3.11
2016-01-30T04:55:23.898Z,3.08
2016-01-30T04:56:23.855Z,3.08
2016-01-30T04:57:23.842Z,3.1
2016-01-30T04:58:23.829Z,3.16
2016-01-30T04:59:23.802Z,3.11
2016-01-30T05:00:23.898Z,3.11
2016-01-30T05:01:23.812Z,3.14
2016-01-30T05:02:23.798Z,3.14
2016-01-30T05:03:23.801Z,3.11
2016-01-30T05:04:23.820Z,3.18
2016-01-30T05:05:23.871Z,3.14
2016-01-30T05:06:23.780Z,3.1
2016-01-30T05:07:23.767Z,3.05
2016-01-30T05:08:23.770Z,3.1
2016-01-30T05:09:23.776Z,3.07
2016-01-30T05:10:23.778Z,3.05
2016-01-30T05:11:23.765Z,3.08
2016-01-30T05:12:23.768Z,3.07
2016-01-30T05:13:23.759Z,3.08
2016-01-30T05:14:23.746Z,3.1
2016-01-30T05:15:23.779Z,3.07
2016-01-30T05:16:23.767Z,3.08
2016-01-30T05:17:23.753Z,2.98
2016-01-30T05:18:23.742Z,3.04
2016-01-30T05:19:23.760Z,3.11
2016-01-30T05:20:23.737Z,3.07
2016-01-30T05:21:23.740Z,3.1
2016-01-30T05:22:23.711Z,3.07
2016-01-30T05:23:23.729Z,3.04
2016-01-30T05:24:23.732Z,3.08
2016-01-30T05:25:23.718Z,3.04
2016-01-30T05:26:23.753Z,2.92
2016-01-30T05:27:23.709Z,2.98
2016-01-30T05:28:23.711Z,3.03
2016-01-30T05:29:23.699Z,3.01
2016-01-30T05:30:23.701Z,2.98
2016-01-30T05:31:23.799Z,2.93
2016-01-30T05:32:23.676Z,2.97
2016-01-30T05:33:23.695Z,2.87
2016-01-30T05:34:23.683Z,2.9
2016-01-30T05:35:23.685Z,2.86
2016-01-30T05:36:23.657Z,2.89
2016-01-30T05:37:23.676Z,2.83
2016-01-30T05:38:23.647Z,2.93
2016-01-30T05:39:23.651Z,2.89
2016-01-30T05:40:23.670Z,2.85
2016-01-30T05:41:23.641Z,2.86
2016-01-30T05:42:23.628Z,2.86
2016-01-30T05:43:23.644Z,2.89
2016-01-30T05:44:23.631Z,2.86
2016-01-30T05:45:23.696Z,2.92
2016-01-30T05:46:23.637Z,2.87
2016-01-30T05:47:23.719Z,2.85
2016-01-30T05:48:23.706Z,2.74
2016-01-30T05:49:23.615Z,2.82
2016-01-30T05:50:23.649Z,2.85
2016-01-30T05:51:23.589Z,2.9
2016-01-30T05:52:23.593Z,2.87
2016-01-30T05:53:23.595Z,2.74
2016-01-30T05:54:23.598Z,2.79
2016-01-30T05:55:23.632Z,2.86
2016-01-30T05:56:23.575Z,2.77
2016-01-30T05:57:23.593Z,2.87
2016-01-30T05:58:23.582Z,2.87
2016-01-30T05:59:23.569Z,2.77
2016-01-30T06:00:23.618Z,2.83
2016-01-30T06:01:23.574Z,2.82
2016-01-30T06:02:23.562Z,2.8
2016-01-30T06:03:23.564Z,2.8
2016-01-30T06:04:23.567Z,2.8
2016-01-30T06:05:23.570Z,2.82
2016-01-30T06:06:23.529Z,2.92
2016-01-30T06:07:23.531Z,2.83
2016-01-30T06:08:23.535Z,2.86
2016-01-30T06:09:23.537Z,2.82
2016-01-30T06:10:23.555Z,2.86
2016-01-30T06:11:23.512Z,2.77
2016-01-30T06:12:23.514Z,2.77
2016-01-30T06:13:23.517Z,2.8
2016-01-30T06:14:23.505Z,2.89
2016-01-30T06:15:23.529Z,2.86
2016-01-30T06:16:23.517Z,2.89
2016-01-30T06:17:23.492Z,2.82
2016-01-30T06:18:23.480Z,2.86
2016-01-30T06:19:23.498Z,2.83
2016-01-30T06:20:23.486Z,2.77
2016-01-30T06:21:23.505Z,2.85
2016-01-30T06:22:23.445Z,2.82
2016-01-30T06:23:23.479Z,2.82
2016-01-30T06:24:23.466Z,2.71
2016-01-30T06:25:23.516Z,2.69
2016-01-30T06:26:23.457Z,2.77
2016-01-30T06:27:23.460Z,2.72
2016-01-30T06:28:23.462Z,2.69
2016-01-30T06:29:23.449Z,2.69
2016-01-30T06:30:23.500Z,2.79
2016-01-30T06:31:23.439Z,2.77
2016-01-30T06:32:23.458Z,2.77
2016-01-30T06:33:23.430Z,2.74
2016-01-30T06:34:23.433Z,2.75
2016-01-30T06:35:23.545Z,2.74
2016-01-30T06:36:23.404Z,2.68
2016-01-30T06:37:23.406Z,2.74
2016-01-30T06:38:23.413Z,2.69
2016-01-30T06:39:23.385Z,2.72
2016-01-30T06:40:23.450Z,2.69
2016-01-30T06:41:23.468Z,2.65
2016-01-30T06:42:23.409Z,2.72
2016-01-30T06:43:23.380Z,2.56
2016-01-30T06:44:23.367Z,2.72
2016-01-30T06:45:23.449Z,2.74
2016-01-30T06:46:23.358Z,2.71
2016-01-30T06:47:23.361Z,2.56
2016-01-30T06:48:23.364Z,2.67
2016-01-30T06:49:23.371Z,2.71
2016-01-30T06:50:23.359Z,2.71
2016-01-30T06:51:23.346Z,2.75
2016-01-30T06:52:23.332Z,2.69
2016-01-30T06:53:23.352Z,2.61
2016-01-30T06:54:23.339Z,2.74
2016-01-30T06:55:28.702Z,2.72
2016-01-30T06:56:23.344Z,2.67
2016-01-30T06:57:23.316Z,2.72
2016-01-30T06:58:23.319Z,2.68
2016-01-30T06:59:23.353Z,2.77
2016-01-30T07:00:23.371Z,2.75
2016-01-30T07:01:23.311Z,2.74
2016-01-30T07:02:23.314Z,2.79
2016-01-30T07:03:23.285Z,2.87
2016-01-30T07:04:23.319Z,2.92
2016-01-30T07:05:23.322Z,2.92
2016-01-30T07:06:23.294Z,2.87
2016-01-30T07:07:23.280Z,3.04
2016-01-30T07:08:23.284Z,2.98
2016-01-30T07:09:23.272Z,3.05
2016-01-30T07:10:23.275Z,3.05
2016-01-30T07:11:23.105Z,3.08
2016-01-30T07:12:23.265Z,3.08
2016-01-30T07:13:23.284Z,3.13
2016-01-30T07:14:23.256Z,3.1
2016-01-30T07:15:23.243Z,3.21
2016-01-30T07:16:23.263Z,3.1
2016-01-30T07:17:23.236Z,3.21
2016-01-30T07:18:23.240Z,3.18
2016-01-30T07:19:23.242Z,3.34
2016-01-30T07:20:23.230Z,3.37
2016-01-30T07:21:23.249Z,3.42
2016-01-30T07:22:23.223Z,3.45
2016-01-30T07:23:23.227Z,3.65
2016-01-30T07:24:23.213Z,3.83
2016-01-30T07:25:23.216Z,4.24
2016-01-30T07:26:23.203Z,4.45
2016-01-30T07:27:23.207Z,4.82
2016-01-30T07:28:23.210Z,4.94
2016-01-30T07:29:23.196Z,5
2016-01-30T07:30:23.246Z,5.05
2016-01-30T07:31:23.191Z,5.32
2016-01-30T07:32:23.178Z,5.43
2016-01-30T07:33:23.196Z,5.57
2016-01-30T07:34:23.184Z,5.62
2016-01-30T07:35:23.201Z,5.86
2016-01-30T07:36:23.172Z,5.91
2016-01-30T07:37:23.192Z,5.98
2016-01-30T07:38:23.178Z,6.17
2016-01-30T07:39:23.180Z,6.36
2016-01-30T07:40:23.261Z,6.52
2016-01-30T07:41:23.190Z,6.74
2016-01-30T07:42:23.193Z,6.87
2016-01-30T07:43:23.195Z,7.18
2016-01-30T07:44:23.167Z,7.36
2016-01-30T07:45:23.185Z,7.45
2016-01-30T07:46:23.165Z,7.25
2016-01-30T07:47:23.168Z,7.11
2016-01-30T07:48:23.171Z,6.93
2016-01-30T07:49:23.174Z,6.69
2016-01-30T07:50:23.208Z,6.46
2016-01-30T07:51:23.164Z,6.26
2016-01-30T07:52:23.167Z,5.98
2016-01-30T07:53:23.200Z,5.71
2016-01-30T07:54:23.173Z,5.53
2016-01-30T07:55:23.019Z,5.46
2016-01-30T07:56:23.164Z,5.56
2016-01-30T07:57:23.166Z,5.47
2016-01-30T07:58:23.184Z,5.54
2016-01-30T07:59:23.172Z,5.47
2016-01-30T08:00:23.205Z,5.36
2016-01-30T08:01:23.192Z,5.41
2016-01-30T08:02:23.164Z,5.38
2016-01-30T08:03:23.166Z,5.38
2016-01-30T08:04:23.169Z,5.28
2016-01-30T08:05:23.156Z,5.38
2016-01-30T08:06:23.174Z,5.28
2016-01-30T08:07:23.161Z,5.33
2016-01-30T08:08:23.164Z,5.33
2016-01-30T08:09:23.168Z,5.38
2016-01-30T08:10:23.201Z,5.35
2016-01-30T08:11:23.158Z,5.39
2016-01-30T08:12:23.145Z,5.43
2016-01-30T08:13:23.165Z,5.46
2016-01-30T08:14:23.183Z,5.46
2016-01-30T08:15:23.216Z,5.59
2016-01-30T08:16:23.161Z,5.53
2016-01-30T08:17:23.178Z,5.59
2016-01-30T08:18:23.166Z,5.61
2016-01-30T08:19:23.153Z,5.64
2016-01-30T08:20:23.265Z,5.8
2016-01-30T08:21:23.158Z,5.75
2016-01-30T08:22:23.239Z,5.91
2016-01-30T08:23:23.146Z,5.87
2016-01-30T08:24:23.148Z,5.91
2016-01-30T08:25:23.229Z,6.11
2016-01-30T08:26:23.153Z,6.14
2016-01-30T08:27:23.140Z,6.14
2016-01-30T08:28:23.163Z,6.26
2016-01-30T08:29:23.149Z,6.41
2016-01-30T08:30:23.152Z,6.48
2016-01-30T08:31:23.155Z,6.48
2016-01-30T08:32:23.151Z,6.57
2016-01-30T08:33:23.154Z,6.69
2016-01-30T08:34:23.157Z,6.7
2016-01-30T08:35:23.190Z,6.69
2016-01-30T08:36:23.146Z,6.78
2016-01-30T08:37:23.165Z,6.72
2016-01-30T08:38:23.136Z,6.78
2016-01-30T08:39:23.154Z,6.93
2016-01-30T08:40:23.189Z,6.97
2016-01-30T08:41:23.176Z,7.07
2016-01-30T08:42:23.177Z,7.05
2016-01-30T08:43:23.133Z,7.14
2016-01-30T08:44:23.152Z,7.25
2016-01-30T08:45:23.139Z,7.38
2016-01-30T08:46:23.157Z,7.39
2016-01-30T08:47:23.148Z,7.5
2016-01-30T08:48:23.146Z,7.57
2016-01-30T08:49:22.995Z,7.6
2016-01-30T08:50:23.169Z,7.75
2016-01-30T08:51:23.143Z,7.73
2016-01-30T08:52:23.162Z,7.87
2016-01-30T08:53:23.148Z,7.9
2016-01-30T08:54:23.152Z,7.88
2016-01-30T08:55:23.171Z,7.93
2016-01-30T08:56:23.143Z,7.93
2016-01-30T08:57:23.160Z,8.08
2016-01-30T08:58:23.195Z,8.03
2016-01-30T08:59:23.151Z,8.16
2016-01-30T09:00:23.154Z,8.18
2016-01-30T09:01:23.157Z,8.31
2016-01-30T09:02:23.190Z,8.3
2016-01-30T09:03:23.177Z,8.28
2016-01-30T09:04:23.148Z,8.31
2016-01-30T09:05:23.168Z,8.24
2016-01-30T09:06:23.159Z,8.41
2016-01-30T09:07:23.192Z,8.44
2016-01-30T09:08:23.164Z,8.41
2016-01-30T09:09:23.167Z,8.46
2016-01-30T09:10:23.169Z,8.53
2016-01-30T09:11:23.188Z,8.53
2016-01-30T09:12:23.190Z,8.61
2016-01-30T09:13:23.180Z,8.69
2016-01-30T09:14:23.159Z,8.74
2016-01-30T09:15:23.194Z,8.74
2016-01-30T09:16:23.165Z,8.91
2016-01-30T09:17:23.198Z,9.06
2016-01-30T09:18:23.170Z,8.99
2016-01-30T09:19:23.173Z,9.13
2016-01-30T09:20:23.176Z,9.25
2016-01-30T09:21:23.179Z,9.36
2016-01-30T09:22:23.197Z,9.31
2016-01-30T09:23:23.169Z,9.37
2016-01-30T09:24:23.202Z,9.31
2016-01-30T09:25:24.004Z,9.41
2016-01-30T09:26:23.195Z,9.37
2016-01-30T09:27:23.197Z,9.5
2016-01-30T09:28:23.215Z,9.55
2016-01-30T09:29:23.217Z,9.55
2016-01-30T09:30:23.207Z,9.58
2016-01-30T09:31:23.210Z,9.64
2016-01-30T09:32:23.213Z,9.72
2016-01-30T09:33:23.200Z,9.73
2016-01-30T09:34:23.208Z,9.77
2016-01-30T09:35:23.211Z,9.82
2016-01-30T09:36:23.213Z,9.84
2016-01-30T09:37:23.216Z,9.83
2016-01-30T09:38:23.222Z,9.8
2016-01-30T09:39:23.208Z,9.8
2016-01-30T09:40:23.274Z,9.77
2016-01-30T09:41:23.214Z,9.62
2016-01-30T09:42:23.232Z,9.64
2016-01-30T09:43:23.235Z,9.5
2016-01-30T09:44:23.241Z,9.62
2016-01-30T09:45:23.244Z,9.62
2016-01-30T09:46:23.231Z,9.64
2016-01-30T09:47:23.295Z,9.79
2016-01-30T09:48:23.267Z,9.74
2016-01-30T09:49:23.238Z,9.76
2016-01-30T09:50:23.258Z,9.79
2016-01-30T09:51:23.275Z,9.74
2016-01-30T09:52:23.246Z,9.76
2016-01-30T09:53:23.266Z,9.79
2016-01-30T09:54:23.253Z,9.87
2016-01-30T09:55:23.256Z,9.79
2016-01-30T09:56:23.258Z,9.74
2016-01-30T09:57:23.244Z,9.8
2016-01-30T09:58:23.247Z,9.79
2016-01-30T09:59:23.284Z,9.72
2016-01-30T10:00:23.287Z,9.79
2016-01-30T10:01:23.255Z,9.72
2016-01-30T10:02:23.292Z,9.79
2016-01-30T10:03:23.135Z,9.83
2016-01-30T10:04:23.341Z,9.84
2016-01-30T10:05:23.313Z,9.77
2016-01-30T10:06:23.285Z,9.72
2016-01-30T10:07:23.288Z,9.76
2016-01-30T10:08:23.290Z,9.79
2016-01-30T10:09:23.292Z,9.72
2016-01-30T10:10:23.311Z,9.79
2016-01-30T10:11:23.298Z,9.74
2016-01-30T10:12:23.285Z,9.74
2016-01-30T10:13:23.304Z,9.8
2016-01-30T10:14:23.291Z,9.76
2016-01-30T10:15:23.357Z,9.82
2016-01-30T10:16:23.304Z,9.79
2016-01-30T10:17:23.307Z,9.84
2016-01-30T10:18:23.185Z,9.76
2016-01-30T10:19:23.297Z,9.77
2016-01-30T10:20:23.362Z,9.77
2016-01-30T10:21:23.302Z,9.74
2016-01-30T10:22:23.304Z,9.74
2016-01-30T10:23:23.307Z,9.79
2016-01-30T10:24:23.326Z,9.8
2016-01-30T10:25:23.345Z,9.74
2016-01-30T10:26:23.316Z,9.74
2016-01-30T10:27:23.334Z,9.62
2016-01-30T10:28:23.337Z,9.55
2016-01-30T10:29:23.324Z,9.56
2016-01-30T10:30:23.390Z,9.56
2016-01-30T10:31:23.330Z,9.55
2016-01-30T10:32:23.333Z,9.68
2016-01-30T10:33:23.351Z,9.61
2016-01-30T10:34:23.338Z,9.68
2016-01-30T10:35:23.374Z,9.61
2016-01-30T10:36:23.330Z,9.68
2016-01-30T10:37:23.364Z,9.62
2016-01-30T10:38:23.335Z,9.66
2016-01-30T10:39:23.353Z,9.66
2016-01-30T10:40:23.394Z,9.59
2016-01-30T10:41:23.366Z,9.66
2016-01-30T10:42:23.212Z,9.72
2016-01-30T10:43:23.402Z,9.69
2016-01-30T10:44:23.359Z,9.77
2016-01-30T10:45:23.367Z,9.73
2016-01-30T10:46:23.370Z,9.77
2016-01-30T10:47:23.372Z,9.76
2016-01-30T10:48:23.376Z,9.74
2016-01-30T10:49:23.394Z,9.73
2016-01-30T10:50:23.431Z,9.69
2016-01-30T10:51:23.371Z,9.69
2016-01-30T10:52:23.374Z,9.62
2016-01-30T10:53:23.377Z,9.69
2016-01-30T10:54:23.383Z,9.66
2016-01-30T10:55:23.386Z,9.68
2016-01-30T10:56:23.388Z,9.79
2016-01-30T10:57:23.375Z,9.77
2016-01-30T10:58:23.378Z,9.74
2016-01-30T10:59:23.398Z,9.76
2016-01-30T11:00:23.401Z,9.8
2016-01-30T11:01:23.388Z,9.68
2016-01-30T11:02:23.391Z,9.79
2016-01-30T11:03:23.410Z,9.77
2016-01-30T11:04:23.397Z,9.82
2016-01-30T11:05:23.403Z,9.76
2016-01-30T11:06:23.405Z,9.77
2016-01-30T11:07:23.408Z,9.86
2016-01-30T11:08:23.395Z,9.89
2016-01-30T11:09:23.430Z,9.83
2016-01-30T11:10:23.433Z,9.89
2016-01-30T11:11:23.451Z,9.86
2016-01-30T11:12:23.406Z,9.89
2016-01-30T11:13:23.425Z,9.91
2016-01-30T11:14:23.415Z,9.87
2016-01-30T11:15:23.433Z,9.91
2016-01-30T11:16:23.420Z,9.84
2016-01-30T11:17:23.456Z,9.95
2016-01-30T11:18:23.430Z,9.91
2016-01-30T11:19:23.433Z,9.91
2016-01-30T11:20:23.420Z,9.92
2016-01-30T11:21:23.438Z,9.84
2016-01-30T11:22:23.425Z,9.94
2016-01-30T11:23:22.678Z,10.01
2016-01-30T11:24:23.430Z,10.05
2016-01-30T11:25:23.449Z,10.04
2016-01-30T11:26:22.703Z,10.12
2016-01-30T11:27:23.455Z,10.2
2016-01-30T11:28:23.458Z,10.13
2016-01-30T11:29:23.775Z,10.12
2016-01-30T11:30:23.527Z,10.09
2016-01-30T11:31:23.451Z,10.13
2016-01-30T11:32:23.454Z,10.07
2016-01-30T11:33:23.458Z,10.13
2016-01-30T11:34:23.477Z,10.2
2016-01-30T11:35:23.543Z,10.15
2016-01-30T11:36:23.451Z,10.26
2016-01-30T11:37:23.471Z,10.28
2016-01-30T11:38:23.474Z,10.17
2016-01-30T11:39:23.461Z,10.19
2016-01-30T11:40:23.589Z,10.19
2016-01-30T11:41:23.485Z,10.2
2016-01-30T11:42:23.472Z,10.1
2016-01-30T11:43:23.475Z,10.15
2016-01-30T11:44:23.478Z,10.31
2016-01-30T11:45:23.542Z,10.23
2016-01-30T11:46:23.514Z,10.34
2016-01-30T11:47:23.488Z,10.25
2016-01-30T11:48:23.506Z,10.22
2016-01-30T11:49:23.494Z,10.13
2016-01-30T11:50:23.512Z,10.28
2016-01-30T11:51:23.483Z,10.2
2016-01-30T11:52:23.502Z,10.19
2016-01-30T11:53:23.489Z,10.26
2016-01-30T11:54:23.492Z,10.15
2016-01-30T11:55:23.541Z,10.13
2016-01-30T11:56:23.515Z,10.07
2016-01-30T11:57:23.518Z,10.09
2016-01-30T11:58:23.520Z,10.13
2016-01-30T11:59:23.507Z,10.1
2016-01-30T12:00:23.547Z,9.98
2016-01-30T12:01:23.519Z,10.1
2016-01-30T12:02:23.491Z,10.1
2016-01-30T12:03:23.463Z,9.97
2016-01-30T12:04:23.451Z,9.99
2016-01-30T12:05:23.448Z,10.12
2016-01-30T12:06:23.460Z,10.1
2016-01-30T12:07:23.443Z,10.12
2016-01-30T12:08:23.424Z,9.98
2016-01-30T12:09:23.421Z,9.97
2016-01-30T12:10:23.562Z,9.98
2016-01-30T12:11:23.751Z,10.01
2016-01-30T12:12:23.439Z,9.99
2016-01-30T12:13:23.424Z,9.99
2016-01-30T12:14:23.456Z,10.1
2016-01-30T12:15:23.538Z,10.05
2016-01-30T12:16:23.430Z,10.07
2016-01-30T12:17:23.442Z,10.16
2016-01-30T12:18:23.443Z,10.16
2016-01-30T12:19:23.429Z,10.26
2016-01-30T12:20:23.449Z,10.12
2016-01-30T12:21:23.451Z,10.15
2016-01-30T12:22:23.453Z,10.26
2016-01-30T12:23:23.424Z,10.22
2016-01-30T12:24:23.443Z,10.3
2016-01-30T12:25:23.445Z,10.31
2016-01-30T12:26:23.449Z,10.33
2016-01-30T12:27:23.452Z,10.34
2016-01-30T12:28:23.299Z,10.34
2016-01-30T12:29:23.457Z,10.42
2016-01-30T12:30:23.523Z,10.48
2016-01-30T12:31:23.445Z,10.54
2016-01-30T12:32:23.463Z,10.61
2016-01-30T12:33:23.466Z,10.57
2016-01-30T12:34:23.453Z,10.63
2016-01-30T12:35:23.457Z,10.6
2016-01-30T12:36:23.460Z,10.54
2016-01-30T12:37:23.462Z,10.63
2016-01-30T12:38:23.324Z,10.57
2016-01-30T12:39:23.312Z,10.6
2016-01-30T12:40:23.533Z,10.61
2016-01-30T12:41:23.489Z,10.59
2016-01-30T12:42:23.492Z,10.71
2016-01-30T12:43:23.526Z,10.68
2016-01-30T12:44:23.498Z,10.63
2016-01-30T12:45:23.564Z,10.64
2016-01-30T12:46:23.489Z,10.63
2016-01-30T12:47:23.491Z,10.6
2016-01-30T12:48:23.501Z,10.54
2016-01-30T12:49:23.504Z,10.64
2016-01-30T12:50:23.492Z,10.53
2016-01-30T12:51:23.495Z,10.57
2016-01-30T12:52:23.498Z,10.67
2016-01-30T12:53:23.516Z,10.6
2016-01-30T12:54:23.504Z,10.61
2016-01-30T12:55:23.521Z,10.71
2016-01-30T12:56:23.524Z,10.69
2016-01-30T12:57:23.527Z,10.74
2016-01-30T12:58:23.532Z,10.79
2016-01-30T12:59:23.519Z,10.78
2016-01-30T13:00:23.522Z,10.89
2016-01-30T13:01:23.525Z,10.84
2016-01-30T13:02:23.543Z,10.97
2016-01-30T13:03:23.577Z,10.93
2016-01-30T13:04:23.533Z,11
2016-01-30T13:05:23.536Z,10.97
2016-01-30T13:06:23.538Z,11
2016-01-30T13:07:23.559Z,10.89
2016-01-30T13:08:23.562Z,10.86
2016-01-30T13:09:23.566Z,10.81
2016-01-30T13:10:23.585Z,10.78
2016-01-30T13:11:23.587Z,10.9
2016-01-30T13:12:23.605Z,10.86
2016-01-30T13:13:23.595Z,10.87
2016-01-30T13:14:23.598Z,10.86
2016-01-30T13:15:23.585Z,10.84
2016-01-30T13:16:23.603Z,10.92
2016-01-30T13:17:23.591Z,10.92
2016-01-30T13:18:23.594Z,10.94